Linjiang, China
Current Conditions -  °F | °C
As of 6:00 AM on Friday 21 Nov 2014 (Local Time) from ZYCC Reporting Station
Clear Clear  
Wind Chill: 19°   Ceiling: Unl
Heat Index: 27°   Visibility: 6mi
Dew Point: 18°   Wind: 7mph
Humidity: 69%   Direction: 200°SSW
Pressure: 30.03"   Gusts: NA
Location:  41.82°N, 126.91°E
Report Text: ZYCC 202200Z 20003MPS CAVOK M03/M08 Q1017 NOSIG
Loading
Personal Weather Stations






























Interactive Weather Map New forecast layout! Learn more

10-Day Weather Forecast

Advertisements
Track Severe Weather on mobile